Time;durP1;ratioP1;P1;durP2;ratioP2;P2;SDS_P1;SDS_P2;PMS_P1;PMS_P2;Temp;Humidity;BMP_temperature;BMP_pressure;BME280_temperature;BME280_humidity;BME280_pressure;Samples;Min_cycle;Max_cycle;Signal;HPM_P1;HPM_P2
2023/10/18 00:00:49;;;;;;;2.4;2;;;;;;;5.89;93.5791;933.8217;;;;
2023/10/18 00:03:18;;;;;;;4.8;2;;;;;;;6.19;92.16211;933.7385;;;;
2023/10/18 00:05:41;;;;;;;3;2.3;;;;;;;5.84;93.66016;933.7244;;;;
2023/10/18 00:08:10;;;;;;;2.8;2;;;;;;;5.79;94.65332;933.7964;;;;
2023/10/18 00:10:35;;;;;;;2.2;2;;;;;;;5.82;93.87988;933.7595;;;;
2023/10/18 00:13:03;;;;;;;2;1.9;;;;;;;5.74;94.39453;933.7126;;;;
2023/10/18 00:15:31;;;;;;;2.2;2;;;;;;;5.71;95.3125;933.7452;;;;
2023/10/18 00:17:57;;;;;;;3.3;2.2;;;;;;;5.58;95.67871;933.6886;;;;
2023/10/18 00:20:25;;;;;;;4.1;3;;;;;;;5.75;94.99512;933.6725;;;;
2023/10/18 00:22:47;;;;;;;8.1;7.4;;;;;;;5.93;94.23145;933.6323;;;;
2023/10/18 00:25:19;;;;;;;3.2;2.2;;;;;;;5.86;93.92188;933.5935;;;;
2023/10/18 00:27:42;;;;;;;3;2.3;;;;;;;6.03;93.7334;933.6021;;;;
2023/10/18 00:30:18;;;;;;;2.1;1.9;;;;;;;5.97;93.32617;933.5556;;;;
2023/10/18 00:32:41;;;;;;;3.4;3;;;;;;;6.05;92.94629;933.4506;;;;
2023/10/18 00:35:16;;;;;;;2.5;1.9;;;;;;;6.21;93.16016;933.4973;;;;
2023/10/18 00:37:32;;;;;;;2.4;2;;;;;;;6.09;92.99023;933.3661;;;;
2023/10/18 00:39:57;;;;;;;3.3;1.6;;;;;;;6;93.35449;933.372;;;;
2023/10/18 00:42:28;;;;;;;3.5;2;;;;;;;5.98;93.8584;933.3298;;;;
2023/10/18 00:45:02;;;;;;;2.7;1.9;;;;;;;6.09;93.75879;933.3558;;;;
2023/10/18 00:47:21;;;;;;;2.8;2;;;;;;;6.14;92.96777;933.2722;;;;
2023/10/18 00:49:52;;;;;;;2.7;2;;;;;;;6.17;93.13379;933.355;;;;
2023/10/18 00:52:15;;;;;;;2.9;1.7;;;;;;;5.92;93.74316;933.3192;;;;
2023/10/18 00:54:38;;;;;;;3.1;1.9;;;;;;;5.92;94.21777;933.2797;;;;
2023/10/18 00:57:02;;;;;;;2.5;1.8;;;;;;;6.07;93.15527;933.2156;;;;
2023/10/18 00:59:32;;;;;;;2;1.8;;;;;;;5.97;93.33691;933.2;;;;
2023/10/18 01:02:03;;;;;;;3.2;2.6;;;;;;;6.02;92.55859;933.1119;;;;
2023/10/18 01:04:28;;;;;;;2.2;2;;;;;;;5.93;93.38379;933.0911;;;;
2023/10/18 01:06:50;;;;;;;2.2;2;;;;;;;6.19;92.38965;933.0699;;;;
2023/10/18 01:09:15;;;;;;;3;2.2;;;;;;;6.06;92.38477;933.1325;;;;
2023/10/18 01:11:45;;;;;;;2.2;2;;;;;;;6.19;92.33105;933.0176;;;;
2023/10/18 01:14:13;;;;;;;1.7;1.6;;;;;;;6.18;92.07129;933.079;;;;
2023/10/18 01:16:35;;;;;;;2.6;1.9;;;;;;;6.35;91.46191;933.0072;;;;
2023/10/18 01:18:58;;;;;;;2.1;1.9;;;;;;;6.29;91.29199;933.0087;;;;
2023/10/18 01:21:23;;;;;;;2.4;2;;;;;;;6.17;91.75488;932.955;;;;
2023/10/18 01:23:52;;;;;;;2.2;2;;;;;;;6.25;91.65723;932.9068;;;;
2023/10/18 01:26:15;;;;;;;2.5;1.9;;;;;;;6.08;92.31934;932.8948;;;;
2023/10/18 01:28:40;;;;;;;2.7;1.9;;;;;;;6.07;92.61328;932.9089;;;;
2023/10/18 01:31:07;;;;;;;2.3;2;;;;;;;5.86;93.03125;932.8351;;;;
2023/10/18 01:33:39;;;;;;;2.9;1.8;;;;;;;6.06;92.6543;932.8369;;;;
2023/10/18 01:36:00;;;;;;;3.3;1.9;;;;;;;5.8;92.97266;932.7453;;;;
2023/10/18 01:38:29;;;;;;;2.4;1.8;;;;;;;5.97;92.85156;932.7662;;;;
2023/10/18 01:40:52;;;;;;;2.5;1.9;;;;;;;6.08;91.91211;932.7899;;;;
2023/10/18 01:43:17;;;;;;;3.1;2.2;;;;;;;6.07;91.34766;932.8118;;;;
2023/10/18 01:45:39;;;;;;;2.6;2;;;;;;;5.83;92.53809;932.7177;;;;
2023/10/18 01:48:09;;;;;;;3.9;2.8;;;;;;;5.99;91.85938;932.7728;;;;
2023/10/18 01:50:35;;;;;;;2.4;2;;;;;;;5.59;93.51367;932.7103;;;;
2023/10/18 01:53:15;;;;;;;2.5;1.9;;;;;;;5.76;93.4707;932.6694;;;;
2023/10/18 01:55:32;;;;;;;3;2;;;;;;;5.57;93.9375;932.6633;;;;
2023/10/18 01:57:58;;;;;;;2.3;1.9;;;;;;;5.57;94.38867;932.6057;;;;
2023/10/18 02:00:34;;;;;;;2.8;2.2;;;;;;;5.88;93.74707;932.6451;;;;
2023/10/18 02:03:00;;;;;;;2.3;1.8;;;;;;;6.04;92.05371;932.6184;;;;
2023/10/18 02:05:26;;;;;;;3.3;2.2;;;;;;;5.93;92.43457;932.6005;;;;
2023/10/18 02:07:51;;;;;;;2;1.8;;;;;;;5.9;92.44043;932.5983;;;;
2023/10/18 02:10:23;;;;;;;2.3;1.9;;;;;;;5.47;94.70703;932.5675;;;;
2023/10/18 02:12:44;;;;;;;1.7;1.6;;;;;;;5.61;94.0166;932.5728;;;;
2023/10/18 02:15:15;;;;;;;2.1;1.6;;;;;;;5.47;94.54688;932.562;;;;
2023/10/18 02:17:43;;;;;;;1.8;1.5;;;;;;;5.53;94.3125;932.5598;;;;
2023/10/18 02:20:15;;;;;;;2.1;1.8;;;;;;;5.61;94.0166;932.5223;;;;
2023/10/18 02:22:37;;;;;;;1.9;1.7;;;;;;;5.7;93.51563;932.5096;;;;
2023/10/18 02:25:03;;;;;;;3.1;1.7;;;;;;;5.77;92.97559;932.5536;;;;
2023/10/18 02:27:30;;;;;;;2.2;1.7;;;;;;;5.99;91.66895;932.5762;;;;
2023/10/18 02:29:57;;;;;;;2.7;1.8;;;;;;;5.75;92.57617;932.5341;;;;
2023/10/18 02:32:32;;;;;;;3.3;2.2;;;;;;;5.64;93.44531;932.556;;;;
2023/10/18 02:34:47;;;;;;;2.4;1.9;;;;;;;5.88;92.33496;932.5503;;;;
2023/10/18 02:37:15;;;;;;;2.6;2.2;;;;;;;5.77;92.78613;932.5402;;;;
2023/10/18 02:39:38;;;;;;;2.8;1.9;;;;;;;5.72;93.05664;932.4927;;;;
2023/10/18 02:42:07;;;;;;;3.2;2.2;;;;;;;5.9;92.01074;932.4869;;;;
2023/10/18 02:44:34;;;;;;;3;2.4;;;;;;;5.81;92.11621;932.4487;;;;
2023/10/18 02:47:07;;;;;;;3.1;2.3;;;;;;;5.72;93.0332;932.4255;;;;
2023/10/18 02:49:23;;;;;;;2.5;1.9;;;;;;;5.75;93.35547;932.4441;;;;
2023/10/18 02:51:51;;;;;;;2.8;2.1;;;;;;;5.97;92.55762;932.4359;;;;
2023/10/18 02:54:22;;;;;;;2.3;1.7;;;;;;;5.83;92.62793;932.4191;;;;
2023/10/18 02:56:41;;;;;;;1.6;1.5;;;;;;;5.7;93.63965;932.4606;;;;
2023/10/18 02:59:13;;;;;;;1.6;1.5;;;;;;;5.5;94.33887;932.3912;;;;
2023/10/18 03:01:39;;;;;;;2.2;1.7;;;;;;;5.59;94.41504;932.3154;;;;
2023/10/18 03:04:06;;;;;;;1.8;1.6;;;;;;;5.67;94.16211;932.3431;;;;
2023/10/18 03:06:33;;;;;;;1.7;1.6;;;;;;;5.6;94.59961;932.3141;;;;
2023/10/18 03:08:57;;;;;;;2.5;1.7;;;;;;;5.35;95.33496;932.302;;;;
2023/10/18 03:11:20;;;;;;;3.2;1.8;;;;;;;5.44;95.82715;932.3119;;;;
2023/10/18 03:13:42;;;;;;;1.7;1.5;;;;;;;5.27;96.29688;932.2792;;;;
2023/10/18 03:16:15;;;;;;;1.9;1.7;;;;;;;5.37;96.21777;932.2573;;;;
2023/10/18 03:18:34;;;;;;;2.1;1.8;;;;;;;5.52;95.4707;932.2249;;;;
2023/10/18 03:21:04;;;;;;;2.1;1.6;;;;;;;5.62;94.9082;932.1616;;;;
2023/10/18 03:23:31;;;;;;;1.8;1.6;;;;;;;6.04;90.98047;932.1719;;;;
2023/10/18 03:25:52;;;;;;;1.5;1.3;;;;;;;6.42;90.0293;932.063;;;;
2023/10/18 03:28:23;;;;;;;1.9;1.6;;;;;;;6.58;88.9668;932.1047;;;;
2023/10/18 03:30:46;;;;;;;1.5;1.4;;;;;;;6.33;90.25977;932.1531;;;;
2023/10/18 03:33:11;;;;;;;1.6;1.5;;;;;;;6.52;88.75195;932.0494;;;;
2023/10/18 03:35:40;;;;;;;1.8;1.7;;;;;;;6.25;90.36816;932.113;;;;
2023/10/18 03:38:04;;;;;;;3.8;1.9;;;;;;;6.18;90.16113;932.1267;;;;
2023/10/18 03:40:29;;;;;;;2.7;2;;;;;;;6.34;89.48145;932.074;;;;
2023/10/18 03:43:08;;;;;;;2.4;1.9;;;;;;;5.93;91.18066;932.0441;;;;
2023/10/18 03:45:58;;;;;;;2.6;2;;;;;;;5.98;91.20215;932.0576;;;;
2023/10/18 03:47:59;;;;;;;1.8;1.6;;;;;;;5.84;91.65918;932.0154;;;;
2023/10/18 03:50:28;;;;;;;2.7;1.9;;;;;;;5.84;92.34766;932.0818;;;;
2023/10/18 03:52:45;;;;;;;3.2;2;;;;;;;5.74;92.78906;932.0206;;;;
2023/10/18 03:55:17;;;;;;;4.1;2.4;;;;;;;5.89;92.04297;932.0748;;;;
2023/10/18 03:57:39;;;;;;;4.4;2.6;;;;;;;6.14;90.76172;932.0723;;;;
2023/10/18 04:00:37;;;;;;;3.3;2.3;;;;;;;6.14;90.23047;932.0359;;;;
2023/10/18 04:03:08;;;;;;;3.7;2.5;;;;;;;6.17;89.72754;931.9771;;;;
2023/10/18 04:05:40;;;;;;;3;2.2;;;;;;;6;90.56348;931.9551;;;;
2023/10/18 04:08:04;;;;;;;3;2;;;;;;;5.66;92.52344;931.8739;;;;
2023/10/18 04:10:27;;;;;;;3.8;2;;;;;;;5.53;93.77148;931.9394;;;;
2023/10/18 04:12:51;;;;;;;2.7;2;;;;;;;5.6;93.45996;931.8719;;;;
2023/10/18 04:15:29;;;;;;;3.8;2.6;;;;;;;5.41;94.35449;931.8669;;;;
2023/10/18 04:18:03;;;;;;;4.5;2.5;;;;;;;5.45;94.22754;931.8479;;;;
2023/10/18 04:20:22;;;;;;;2.9;2.6;;;;;;;5.37;94.33301;931.8027;;;;
2023/10/18 04:22:42;;;;;;;3.8;2.5;;;;;;;5.3;94.71387;931.7589;;;;
2023/10/18 04:25:14;;;;;;;3.5;2.4;;;;;;;5.1;95.85352;931.8486;;;;
2023/10/18 04:27:34;;;;;;;4;2.9;;;;;;;4.98;97.16699;931.7924;;;;
2023/10/18 04:30:00;;;;;;;5;3;;;;;;;5.08;96.69336;931.7119;;;;
2023/10/18 04:32:23;;;;;;;3.8;2.7;;;;;;;5.1;96.46289;931.6459;;;;
2023/10/18 04:34:51;;;;;;;4.2;2.4;;;;;;;5.15;96.19141;931.6902;;;;
2023/10/18 04:37:17;;;;;;;2.7;2.2;;;;;;;5.19;96.02051;931.6744;;;;
2023/10/18 04:39:41;;;;;;;3.4;3.1;;;;;;;5.06;96.34863;931.6356;;;;
2023/10/18 04:42:12;;;;;;;4.7;4.3;;;;;;;5.02;96.7041;931.6831;;;;
2023/10/18 04:44:35;;;;;;;3.9;3.5;;;;;;;5.03;96.9082;931.6319;;;;
2023/10/18 04:47:14;;;;;;;3.3;2.7;;;;;;;5.11;96.54199;931.6476;;;;
2023/10/18 04:49:39;;;;;;;3;2.3;;;;;;;5.14;96.17773;931.6475;;;;
2023/10/18 04:51:57;;;;;;;3.9;2.5;;;;;;;5.16;95.90039;931.5744;;;;
2023/10/18 04:54:35;;;;;;;2.9;1.9;;;;;;;5.13;96.0293;931.6394;;;;
2023/10/18 04:56:46;;;;;;;3.4;2.5;;;;;;;5.04;96.59277;931.5792;;;;
2023/10/18 04:59:26;;;;;;;3.3;2.3;;;;;;;5.12;96.55664;931.5145;;;;
2023/10/18 05:01:46;;;;;;;4.3;3;;;;;;;5.15;96.26758;931.5292;;;;
2023/10/18 05:04:21;;;;;;;6.3;4.4;;;;;;;5.16;96.03516;931.5572;;;;
2023/10/18 05:06:35;;;;;;;7.2;4.3;;;;;;;5.03;96.36719;931.5349;;;;
2023/10/18 05:09:06;;;;;;;6.3;4.1;;;;;;;5.14;96.51367;931.4414;;;;
2023/10/18 05:11:27;;;;;;;3;2.7;;;;;;;5.21;95.4707;931.507;;;;
2023/10/18 05:13:56;;;;;;;5.4;3;;;;;;;4.99;96.56055;931.4691;;;;
2023/10/18 05:16:21;;;;;;;2.9;2.6;;;;;;;4.98;96.98633;931.4728;;;;
2023/10/18 05:18:51;;;;;;;2.5;2.3;;;;;;;5.07;96.51074;931.3999;;;;
2023/10/18 05:21:20;;;;;;;3.8;2.7;;;;;;;5.14;96.4375;931.4036;;;;
2023/10/18 05:23:41;;;;;;;2.5;2.1;;;;;;;4.94;96.76172;931.3372;;;;
2023/10/18 05:26:17;;;;;;;2.4;1.7;;;;;;;5.18;96.46777;931.3854;;;;
2023/10/18 05:28:47;;;;;;;2.7;1.9;;;;;;;5.07;96.5332;931.3273;;;;
2023/10/18 05:31:27;;;;;;;2.4;2;;;;;;;5.25;95.97656;931.2803;;;;
2023/10/18 05:35:56;;;;;;;3.7;2.9;;;;;;;5.5;94.62305;931.334;;;;
2023/10/18 05:38:48;;;;;;;3.4;2.9;;;;;;;5.38;95.03711;931.3427;;;;
2023/10/18 05:40:57;;;;;;;3.7;3.1;;;;;;;5.53;94.70801;931.363;;;;
2023/10/18 05:43:35;;;;;;;3.5;3;;;;;;;5.53;94.65137;931.295;;;;
2023/10/18 05:46:00;;;;;;;3.2;2.9;;;;;;;5.45;94.39844;931.2708;;;;
2023/10/18 05:48:24;;;;;;;3.7;2.6;;;;;;;5.44;94.85742;931.3123;;;;
2023/10/18 05:51:03;;;;;;;3.5;2.9;;;;;;;5.45;94.99414;931.3379;;;;
2023/10/18 05:53:24;;;;;;;3.1;2.3;;;;;;;5.59;94.36035;931.3024;;;;
2023/10/18 05:55:48;;;;;;;4.4;2.6;;;;;;;5.86;93.24609;931.2748;;;;
2023/10/18 05:58:18;;;;;;;3.1;2.2;;;;;;;6.04;91.82715;931.2537;;;;
2023/10/18 06:00:41;;;;;;;2.5;2.2;;;;;;;5.82;92.68262;931.3493;;;;
2023/10/18 06:03:03;;;;;;;3.6;2;;;;;;;5.79;93.09473;931.3351;;;;
2023/10/18 06:05:33;;;;;;;4.2;2.9;;;;;;;5.96;92.22656;931.3493;;;;
2023/10/18 06:07:53;;;;;;;5.2;3.1;;;;;;;5.93;92.53711;931.3394;;;;
2023/10/18 06:10:24;;;;;;;7.8;5.1;;;;;;;6.08;92.30957;931.3744;;;;
2023/10/18 06:12:58;;;;;;;6.8;4.4;;;;;;;6.19;91.99219;931.2946;;;;
2023/10/18 06:15:34;;;;;;;7.2;4.1;;;;;;;6.14;91.51953;931.334;;;;
2023/10/18 06:17:53;;;;;;;7;3.8;;;;;;;6.13;91.46094;931.3601;;;;
2023/10/18 06:20:14;;;;;;;7.5;4.5;;;;;;;6.12;91.35938;931.3655;;;;
2023/10/18 06:22:43;;;;;;;5.8;4;;;;;;;6.15;91.5;931.3454;;;;
2023/10/18 06:25:03;;;;;;;7.3;4;;;;;;;6.14;91.8584;931.3625;;;;
2023/10/18 06:27:27;;;;;;;4.2;3.4;;;;;;;6.15;92.07715;931.2947;;;;
2023/10/18 06:29:52;;;;;;;5.2;3.7;;;;;;;6.16;92.30469;931.325;;;;
2023/10/18 06:32:22;;;;;;;7.2;4.4;;;;;;;6.22;92.38477;931.2968;;;;
2023/10/18 06:34:49;;;;;;;7.3;4;;;;;;;6.37;93.06445;931.28;;;;
2023/10/18 06:37:09;;;;;;;8.3;4.3;;;;;;;6.54;91.60449;931.2453;;;;
2023/10/18 06:39:38;;;;;;;5.6;3.4;;;;;;;6.57;90.8877;931.2742;;;;
2023/10/18 06:42:06;;;;;;;3.9;2.8;;;;;;;6.72;90.36426;931.2637;;;;
2023/10/18 06:44:30;;;;;;;4.1;2.4;;;;;;;6.76;89.55859;931.1756;;;;
2023/10/18 06:46:55;;;;;;;3.4;2.1;;;;;;;7.22;88.88477;931.1334;;;;
2023/10/18 06:49:21;;;;;;;4.7;2.9;;;;;;;7.67;87.11621;931.2078;;;;
2023/10/18 06:51:54;;;;;;;3.4;2.1;;;;;;;7.56;86.25488;931.1526;;;;
2023/10/18 06:54:30;;;;;;;3.2;2.3;;;;;;;7.93;84.85547;931.1279;;;;
2023/10/18 06:56:48;;;;;;;4.3;2.8;;;;;;;8.04;85.49023;931.0814;;;;
2023/10/18 06:59:14;;;;;;;4.6;2.9;;;;;;;8.28;84.23047;931.1015;;;;
2023/10/18 07:01:53;;;;;;;4.7;3;;;;;;;8.37;83.56836;931.1278;;;;
2023/10/18 07:04:16;;;;;;;3;2.2;;;;;;;8.48;83.11035;931.139;;;;
2023/10/18 07:06:38;;;;;;;3.5;2.3;;;;;;;8.59;81.95117;931.0991;;;;
2023/10/18 07:09:24;;;;;;;3.5;2.2;;;;;;;8.81;81.93359;931.1289;;;;
2023/10/18 07:11:32;;;;;;;2.6;2.1;;;;;;;8.75;81.44629;931.1168;;;;
2023/10/18 07:13:58;;;;;;;2.6;2.2;;;;;;;8.86;81.64844;931.0786;;;;
2023/10/18 07:16:35;;;;;;;3;2.4;;;;;;;8.98;81.19434;931.0624;;;;
2023/10/18 07:19:03;;;;;;;3.7;2.3;;;;;;;9.1;81.27539;931.0734;;;;
2023/10/18 07:21:18;;;;;;;5.6;2.7;;;;;;;9.15;80.75;931.0125;;;;
2023/10/18 07:23:40;;;;;;;5.7;2.8;;;;;;;9.04;81.90039;931.0756;;;;
2023/10/18 07:26:13;;;;;;;5.4;2.8;;;;;;;8.92;81.96777;930.9891;;;;
2023/10/18 07:28:35;;;;;;;4.1;2.8;;;;;;;9.09;82.61426;930.9877;;;;
2023/10/18 07:31:01;;;;;;;3.5;2.5;;;;;;;9.15;81.96875;931.0172;;;;
2023/10/18 07:33:25;;;;;;;3;2.3;;;;;;;9.21;82.45508;930.97;;;;
2023/10/18 07:35:49;;;;;;;4.7;3.1;;;;;;;9.23;82.18555;930.9319;;;;
2023/10/18 07:38:25;;;;;;;5.1;3.3;;;;;;;9.41;82.03906;930.9211;;;;
2023/10/18 07:40:42;;;;;;;7;4.7;;;;;;;9.62;81.57715;930.9467;;;;
2023/10/18 07:43:12;;;;;;;10.7;5.8;;;;;;;9.79;80.83496;930.9444;;;;
2023/10/18 07:45:36;;;;;;;85.9;39.9;;;;;;;10.06;80.02832;930.8781;;;;
2023/10/18 07:48:05;;;;;;;40.3;19.5;;;;;;;10.17;76.19434;930.9091;;;;
2023/10/18 07:50:45;;;;;;;7.7;4.5;;;;;;;10.24;77.34668;930.9573;;;;
2023/10/18 07:52:54;;;;;;;4.4;2.8;;;;;;;10.33;75.83301;930.9412;;;;
2023/10/18 07:55:19;;;;;;;4.8;2.6;;;;;;;10.49;75.48633;930.8934;;;;
2023/10/18 07:57:49;;;;;;;10.6;4.9;;;;;;;10.71;76.50684;930.8708;;;;
2023/10/18 08:00:26;;;;;;;24.1;12.7;;;;;;;10.87;76.04297;930.83;;;;
2023/10/18 08:02:46;;;;;;;4.5;2.7;;;;;;;11.09;68.97168;930.8405;;;;
2023/10/18 08:05:21;;;;;;;7;3.9;;;;;;;11.32;69.37305;930.7542;;;;
2023/10/18 08:07:49;;;;;;;5.7;3.9;;;;;;;11.49;69.75586;930.7352;;;;
2023/10/18 08:10:09;;;;;;;4.3;3;;;;;;;11.68;70.47266;930.6855;;;;
2023/10/18 08:12:38;;;;;;;4.3;2.6;;;;;;;11.92;70.80859;930.6524;;;;
2023/10/18 08:15:13;;;;;;;4.2;3.2;;;;;;;12.13;71.01465;930.6142;;;;
2023/10/18 08:17:42;;;;;;;5.4;3.5;;;;;;;12.42;70.75391;930.6144;;;;
2023/10/18 08:19:56;;;;;;;4.7;3.4;;;;;;;12.58;69.54004;930.632;;;;
2023/10/18 08:22:25;;;;;;;3.9;2.9;;;;;;;12.66;68.80664;930.5731;;;;
2023/10/18 08:24:49;;;;;;;4.2;2.4;;;;;;;12.7;68.65332;930.5415;;;;
2023/10/18 08:27:11;;;;;;;2.6;2.1;;;;;;;12.94;67.58887;930.5933;;;;
2023/10/18 08:29:38;;;;;;;2.4;1.8;;;;;;;13.21;66.06836;930.512;;;;
2023/10/18 08:32:09;;;;;;;2.8;2;;;;;;;13.57;65.6748;930.4445;;;;
2023/10/18 08:34:28;;;;;;;2.9;1.9;;;;;;;13.64;64.82324;930.4958;;;;
2023/10/18 08:37:01;;;;;;;3.2;1.8;;;;;;;13.97;63.86035;930.4733;;;;
2023/10/18 08:39:25;;;;;;;2;1.7;;;;;;;14;62.88574;930.416;;;;
2023/10/18 08:41:49;;;;;;;3.6;1.9;;;;;;;14.03;63.77539;930.4157;;;;
2023/10/18 08:44:19;;;;;;;3.8;2;;;;;;;14.1;63.98242;930.3666;;;;
2023/10/18 08:46:41;;;;;;;1.7;1.4;;;;;;;14.15;63.72559;930.3105;;;;
2023/10/18 08:49:08;;;;;;;2;1.6;;;;;;;14.21;62.69727;930.3318;;;;
2023/10/18 08:51:33;;;;;;;2.6;1.6;;;;;;;14.49;65.8252;930.3517;;;;
2023/10/18 08:53:59;;;;;;;1.8;1.3;;;;;;;14.67;57.74805;930.2783;;;;
2023/10/18 08:56:29;;;;;;;2.4;1.3;;;;;;;14.85;59.28223;930.2759;;;;
2023/10/18 08:58:49;;;;;;;1.8;1.3;;;;;;;15.07;58.19336;930.1794;;;;
2023/10/18 09:01:21;;;;;;;2.3;1.3;;;;;;;15.29;57.47363;930.1124;;;;
2023/10/18 09:03:39;;;;;;;2.8;1.8;;;;;;;15.44;56.47754;930.1375;;;;
2023/10/18 09:06:07;;;;;;;2.1;1.6;;;;;;;15.53;54.8252;930.1306;;;;
2023/10/18 09:08:33;;;;;;;2;1.3;;;;;;;15.57;53.34082;930.0952;;;;
2023/10/18 09:10:56;;;;;;;1.4;1.3;;;;;;;15.68;54.48633;930.0853;;;;
2023/10/18 09:13:42;;;;;;;2.3;1.3;;;;;;;15.82;54.6084;930.0911;;;;
2023/10/18 09:15:49;;;;;;;3.8;1.6;;;;;;;16.07;53.01953;930.001;;;;
2023/10/18 09:18:10;;;;;;;2.2;1.5;;;;;;;16.31;52.89844;930.1181;;;;
2023/10/18 09:20:39;;;;;;;2.8;1.6;;;;;;;16.66;52.2002;930.067;;;;
2023/10/18 09:23:14;;;;;;;2.6;1.4;;;;;;;17;50.40918;930.0579;;;;
2023/10/18 09:25:47;;;;;;;1.5;1.1;;;;;;;17.28;50.10449;930.0577;;;;
2023/10/18 09:28:08;;;;;;;0.9;0.7;;;;;;;17.3;47.99707;930.0201;;;;
2023/10/18 09:30:21;;;;;;;1.5;0.8;;;;;;;17.34;50.36719;930.0293;;;;
2023/10/18 09:32:46;;;;;;;1.2;1;;;;;;;17.18;51.95996;930.0233;;;;
2023/10/18 09:35:26;;;;;;;0.7;0.7;;;;;;;16.94;51.17773;929.9874;;;;
2023/10/18 09:37:46;;;;;;;0.8;0.6;;;;;;;17.09;52.19238;929.9978;;;;
2023/10/18 09:40:13;;;;;;;1.2;1;;;;;;;17.27;51.71582;929.9704;;;;
2023/10/18 09:42:36;;;;;;;1;0.8;;;;;;;17.18;47.31055;929.9066;;;;
2023/10/18 09:45:08;;;;;;;0.9;0.9;;;;;;;17.27;48.87402;929.9148;;;;
2023/10/18 09:47:32;;;;;;;1.1;0.8;;;;;;;17.32;48.46191;929.8433;;;;
2023/10/18 09:49:57;;;;;;;0.9;0.8;;;;;;;17.22;48.74121;929.83;;;;
2023/10/18 09:52:22;;;;;;;0.7;0.7;;;;;;;17.3;48.80859;929.724;;;;
2023/10/18 09:54:51;;;;;;;1.3;0.9;;;;;;;17.24;48.63867;929.7742;;;;
2023/10/18 09:57:23;;;;;;;1;0.9;;;;;;;17.32;50.19141;929.717;;;;
2023/10/18 09:59:47;;;;;;;2.2;1.1;;;;;;;17.44;49.02051;929.7211;;;;
2023/10/18 10:02:09;;;;;;;1.1;0.7;;;;;;;17.75;47.7207;929.7706;;;;
2023/10/18 10:04:34;;;;;;;2.3;1.1;;;;;;;18.07;48.35938;929.7042;;;;
2023/10/18 10:07:02;;;;;;;0.8;0.7;;;;;;;18.12;45.58789;929.6433;;;;
2023/10/18 10:09:29;;;;;;;0.7;0.6;;;;;;;18.42;46.94531;929.5948;;;;
2023/10/18 10:11:47;;;;;;;1.5;0.7;;;;;;;18.49;41.41699;929.5385;;;;
2023/10/18 10:14:15;;;;;;;1.4;0.8;;;;;;;18.37;45.38184;929.4666;;;;
2023/10/18 10:16:37;;;;;;;1.1;0.9;;;;;;;18.37;44.73047;929.4422;;;;
2023/10/18 10:19:04;;;;;;;0.5;0.5;;;;;;;18.47;46.65918;929.452;;;;
2023/10/18 10:21:29;;;;;;;0.9;0.6;;;;;;;18.52;45.07227;929.4188;;;;
2023/10/18 10:23:58;;;;;;;2;1.2;;;;;;;18.6;51.12695;929.4235;;;;
2023/10/18 10:26:27;;;;;;;1.7;1.3;;;;;;;18.76;53.1709;929.4359;;;;
2023/10/18 10:31:14;;;;;;;1.7;1.5;;;;;;;18.47;55.52051;929.3358;;;;
2023/10/18 10:33:41;;;;;;;2.3;1.9;;;;;;;18.25;59.91992;929.3377;;;;
2023/10/18 10:36:14;;;;;;;3.8;2.2;;;;;;;17.95;61.09766;929.2778;;;;
2023/10/18 10:38:40;;;;;;;2.4;2.2;;;;;;;17.77;61.51465;929.2576;;;;
2023/10/18 10:41:19;;;;;;;3.1;2.1;;;;;;;17.71;62.57227;929.1689;;;;
2023/10/18 10:43:29;;;;;;;2.4;1.9;;;;;;;17.97;61.19434;929.1475;;;;
2023/10/18 10:45:57;;;;;;;2.7;2;;;;;;;17.81;61.47363;929.0366;;;;
2023/10/18 10:48:28;;;;;;;2.3;2;;;;;;;17.5;63.70313;928.9963;;;;
2023/10/18 10:50:50;;;;;;;2.2;1.9;;;;;;;17.43;62.81055;928.91;;;;
2023/10/18 10:53:15;;;;;;;2.5;2;;;;;;;17.73;62.78613;928.8354;;;;
2023/10/18 10:55:40;;;;;;;2.7;1.8;;;;;;;17.58;63.3916;928.7858;;;;
2023/10/18 10:58:15;;;;;;;2;1.8;;;;;;;17.53;62.61719;928.7891;;;;
2023/10/18 11:00:49;;;;;;;1.9;1.8;;;;;;;17.4;62.40234;928.7094;;;;
2023/10/18 11:03:13;;;;;;;1.9;1.8;;;;;;;17.67;62.61328;928.6431;;;;
2023/10/18 11:05:39;;;;;;;2.1;1.9;;;;;;;17.62;63.87109;928.6078;;;;
2023/10/18 11:08:12;;;;;;;2.3;2.1;;;;;;;17.81;62.73926;928.6106;;;;
2023/10/18 11:10:39;;;;;;;2.5;1.6;;;;;;;18.04;62.52734;928.5422;;;;
2023/10/18 11:13:05;;;;;;;2.7;1.8;;;;;;;17.82;61.67188;928.3946;;;;
2023/10/18 11:15:31;;;;;;;2.4;1.9;;;;;;;17.93;61.64063;928.4643;;;;
2023/10/18 11:18:09;;;;;;;2.8;1.8;;;;;;;18.33;60.0459;928.3703;;;;
2023/10/18 11:20:48;;;;;;;3;1.9;;;;;;;18.5;60.06934;928.2587;;;;
2023/10/18 11:22:56;;;;;;;1.8;1.6;;;;;;;19.21;57.02246;928.1597;;;;
2023/10/18 11:25:30;;;;;;;2.7;2;;;;;;;19.28;58.0918;928.1103;;;;
2023/10/18 11:27:48;;;;;;;3.3;2;;;;;;;19.44;56.41113;928.009;;;;
2023/10/18 11:30:22;;;;;;;2.8;1.9;;;;;;;20.47;54.97656;928.0486;;;;
2023/10/18 11:32:48;;;;;;;1.8;1.5;;;;;;;20.54;54.23926;928.0338;;;;
2023/10/18 11:35:16;;;;;;;2.7;1.6;;;;;;;20.24;54.69141;927.9967;;;;
2023/10/18 11:37:44;;;;;;;2.1;1.5;;;;;;;20.26;54.70703;927.9568;;;;
2023/10/18 11:40:16;;;;;;;2.5;1.8;;;;;;;20.07;54.14453;927.9345;;;;
2023/10/18 11:42:37;;;;;;;2;1.8;;;;;;;19.86;56.62695;927.9207;;;;
2023/10/18 11:45:01;;;;;;;1.8;1.7;;;;;;;20.06;55.11328;927.9138;;;;
2023/10/18 11:47:26;;;;;;;2.6;2;;;;;;;19.84;56.11133;927.9044;;;;
2023/10/18 11:49:53;;;;;;;2.1;1.7;;;;;;;19.81;55.54785;927.8981;;;;
2023/10/18 11:52:21;;;;;;;1.9;1.7;;;;;;;21.23;52.14746;927.8297;;;;
2023/10/18 11:54:43;;;;;;;1.7;1.6;;;;;;;20.92;52.6709;927.8131;;;;
2023/10/18 11:57:08;;;;;;;2.6;1.7;;;;;;;21.66;51.20117;927.7082;;;;
2023/10/18 11:59:38;;;;;;;2.2;1.5;;;;;;;23.9;43.71582;927.6914;;;;
2023/10/18 12:02:04;;;;;;;2.2;1.5;;;;;;;24.06;42.91895;927.7202;;;;
2023/10/18 12:04:37;;;;;;;1.6;1.5;;;;;;;26.51;39.31836;927.5008;;;;
2023/10/18 12:06:53;;;;;;;1.5;1.4;;;;;;;28.22;37.11426;927.5636;;;;
2023/10/18 12:09:30;;;;;;;1.4;1.3;;;;;;;30.39;32.55273;927.4919;;;;
2023/10/18 12:11:51;;;;;;;1.8;1.5;;;;;;;31.91;28.91211;927.4669;;;;
2023/10/18 12:14:18;;;;;;;1.7;1.5;;;;;;;31.5;30.23926;927.4009;;;;
2023/10/18 12:16:44;;;;;;;1.4;1.3;;;;;;;30.35;31.72656;927.3345;;;;
2023/10/18 12:19:10;;;;;;;1.3;1.2;;;;;;;29.12;32.05762;927.3515;;;;
2023/10/18 12:21:35;;;;;;;1.3;1.2;;;;;;;30.86;30.65039;927.3533;;;;
2023/10/18 12:24:07;;;;;;;1.8;1.6;;;;;;;31.95;28.53125;927.3342;;;;
2023/10/18 12:26:39;;;;;;;1.7;1.6;;;;;;;32.87;27.48438;927.2653;;;;
2023/10/18 12:29:05;;;;;;;1.6;1.5;;;;;;;30.79;31.35059;927.3011;;;;
2023/10/18 12:31:38;;;;;;;1.6;1.5;;;;;;;31.93;29.44043;927.2202;;;;
2023/10/18 12:34:00;;;;;;;1.8;1.4;;;;;;;33.89;26.76367;927.2516;;;;
2023/10/18 12:36:32;;;;;;;1.5;1.4;;;;;;;31.71;30.07324;927.2256;;;;
2023/10/18 12:38:50;;;;;;;3.9;1.5;;;;;;;34.83;26.01172;927.2483;;;;
2023/10/18 12:41:27;;;;;;;1.7;1.5;;;;;;;32.73;28.50781;927.2149;;;;
2023/10/18 12:43:46;;;;;;;2.4;1.6;;;;;;;32.31;29.2373;927.199;;;;
2023/10/18 12:46:15;;;;;;;1.5;1.4;;;;;;;33.69;26.65527;927.1533;;;;
2023/10/18 12:48:35;;;;;;;1.6;1.5;;;;;;;34.18;26.15527;927.1178;;;;
2023/10/18 12:51:07;;;;;;;1.6;1.5;;;;;;;33.17;27.00977;927.0547;;;;
2023/10/18 12:53:39;;;;;;;1.8;1.5;;;;;;;33.06;27.33984;927.0622;;;;
2023/10/18 12:55:57;;;;;;;1.5;1.4;;;;;;;31.36;29.51074;926.9175;;;;
2023/10/18 12:58:20;;;;;;;1.6;1.4;;;;;;;32.92;27.41504;926.9805;;;;
2023/10/18 13:00:44;;;;;;;1.5;1.4;;;;;;;35.61;23.90527;926.9197;;;;
2023/10/18 13:03:33;;;;;;;1.4;1.3;;;;;;;35.23;23.98242;926.9078;;;;
2023/10/18 13:05:44;;;;;;;1.7;1.4;;;;;;;33.22;26.38867;926.986;;;;
2023/10/18 13:08:02;;;;;;;1.5;1.4;;;;;;;29.9;29.34473;926.9316;;;;
2023/10/18 13:10:29;;;;;;;1.8;1.5;;;;;;;27.15;33.68359;926.8773;;;;
2023/10/18 13:12:52;;;;;;;1.8;1.6;;;;;;;24.75;38.58594;926.9536;;;;
2023/10/18 13:15:14;;;;;;;1.5;1.3;;;;;;;23.37;41.18262;926.9424;;;;
2023/10/18 13:17:44;;;;;;;1.4;1.3;;;;;;;22.9;42.38379;926.8767;;;;
2023/10/18 13:20:15;;;;;;;1.4;1.2;;;;;;;22.62;43.49609;926.8943;;;;
2023/10/18 13:22:36;;;;;;;1.6;1.5;;;;;;;21.53;47.04199;926.8461;;;;
2023/10/18 13:25:07;;;;;;;2.3;1.5;;;;;;;21.37;47.16602;926.8383;;;;
2023/10/18 13:27:36;;;;;;;1.7;1.5;;;;;;;21.16;46.78125;926.853;;;;
2023/10/18 13:30:04;;;;;;;2;1.8;;;;;;;20.8;49.82813;926.8668;;;;
2023/10/18 13:32:23;;;;;;;2;1.6;;;;;;;20.59;50.09766;926.8175;;;;
2023/10/18 13:34:56;;;;;;;2.5;1.8;;;;;;;20.45;50.71289;926.8369;;;;
2023/10/18 13:37:31;;;;;;;1.6;1.5;;;;;;;20.49;50.51855;926.8427;;;;
2023/10/18 13:39:59;;;;;;;2.2;1.6;;;;;;;20.03;50.50098;926.8855;;;;
2023/10/18 13:42:30;;;;;;;1.8;1.7;;;;;;;19.93;50.79102;926.8066;;;;
2023/10/18 13:44:56;;;;;;;1.5;1.4;;;;;;;19.76;51.89258;926.8588;;;;
2023/10/18 13:47:28;;;;;;;1.7;1.6;;;;;;;19.64;52.13379;926.866;;;;
2023/10/18 13:49:57;;;;;;;2;1.6;;;;;;;19.09;53.88672;926.8163;;;;
2023/10/18 13:52:22;;;;;;;2.1;1.6;;;;;;;18.5;56.1748;926.8178;;;;
2023/10/18 13:54:51;;;;;;;1.7;1.6;;;;;;;18.54;55.06348;926.8146;;;;
2023/10/18 13:57:17;;;;;;;1.6;1.5;;;;;;;18.52;55.74609;926.7899;;;;
2023/10/18 13:59:44;;;;;;;1.8;1.7;;;;;;;18.59;55.84863;926.8089;;;;
2023/10/18 14:02:17;;;;;;;2.5;1.8;;;;;;;18.57;55.64844;926.7314;;;;
2023/10/18 14:04:35;;;;;;;1.8;1.7;;;;;;;18.36;56.46973;926.7427;;;;
2023/10/18 14:06:59;;;;;;;2.6;1.9;;;;;;;18.25;57.29297;926.7572;;;;
2023/10/18 14:09:26;;;;;;;2.2;1.8;;;;;;;18.22;57.99902;926.7897;;;;
2023/10/18 14:11:51;;;;;;;2.2;2;;;;;;;18.17;58.14258;926.7706;;;;
2023/10/18 14:14:19;;;;;;;2.2;1.8;;;;;;;18.21;57.03027;926.7893;;;;
2023/10/18 14:16:45;;;;;;;2.3;1.9;;;;;;;18.11;57.9248;926.7439;;;;
2023/10/18 14:19:12;;;;;;;2.3;2;;;;;;;17.93;59.41113;926.7381;;;;
2023/10/18 14:21:38;;;;;;;2.3;1.8;;;;;;;18.08;59.08203;926.6492;;;;
2023/10/18 14:24:05;;;;;;;1.9;1.8;;;;;;;18.21;58.55566;926.6334;;;;
2023/10/18 14:26:28;;;;;;;2.1;1.9;;;;;;;18.27;58.55078;926.5712;;;;
2023/10/18 14:28:58;;;;;;;2.9;2;;;;;;;18.3;58.11328;926.6113;;;;
2023/10/18 14:31:22;;;;;;;2.1;1.9;;;;;;;18.27;58.49316;926.6027;;;;
2023/10/18 14:33:49;;;;;;;1.9;1.8;;;;;;;18.12;58.89063;926.5889;;;;